sensor_id;sensor_type;location;lat;lon;timestamp;pressure;altitude;pressure_sealevel;temperature;humidity
32638;BME280;19045;52.268;10.506;2023-05-25T00:01:35;101539.13;;;10.16;100.00
32638;BME280;19045;52.268;10.506;2023-05-25T00:04:02;101545.78;;;10.14;100.00
32638;BME280;19045;52.268;10.506;2023-05-25T00:06:28;101544.09;;;10.13;100.00
32638;BME280;19045;52.268;10.506;2023-05-25T00:08:55;101539.41;;;10.08;100.00
32638;BME280;19045;52.268;10.506;2023-05-25T00:11:23;101540.22;;;10.09;100.00
32638;BME280;19045;52.268;10.506;2023-05-25T00:13:51;101536.72;;;10.08;100.00
32638;BME280;19045;52.268;10.506;2023-05-25T00:16:18;101535.91;;;10.08;100.00
32638;BME280;19045;52.268;10.506;2023-05-25T00:18:46;101538.00;;;10.06;100.00
32638;BME280;19045;52.268;10.506;2023-05-25T00:21:13;101540.31;;;10.02;100.00
32638;BME280;19045;52.268;10.506;2023-05-25T00:23:40;101540.97;;;9.98;100.00
32638;BME280;19045;52.268;10.506;2023-05-25T00:26:07;101538.38;;;9.91;100.00
32638;BME280;19045;52.268;10.506;2023-05-25T00:28:33;101532.50;;;9.82;100.00
32638;BME280;19045;52.268;10.506;2023-05-25T00:31:00;101530.88;;;9.81;100.00
32638;BME280;19045;52.268;10.506;2023-05-25T00:33:26;101539.75;;;9.82;100.00
32638;BME280;19045;52.268;10.506;2023-05-25T00:35:54;101536.22;;;9.81;100.00
32638;BME280;19045;52.268;10.506;2023-05-25T00:38:21;101537.38;;;9.74;100.00
32638;BME280;19045;52.268;10.506;2023-05-25T00:40:48;101537.97;;;9.76;100.00
32638;BME280;19045;52.268;10.506;2023-05-25T00:43:19;101534.16;;;9.65;100.00
32638;BME280;19045;52.268;10.506;2023-05-25T00:45:46;101528.56;;;9.49;100.00
32638;BME280;19045;52.268;10.506;2023-05-25T00:48:13;101526.41;;;9.39;100.00
32638;BME280;19045;52.268;10.506;2023-05-25T00:50:42;101527.66;;;9.37;100.00
32638;BME280;19045;52.268;10.506;2023-05-25T00:53:12;101526.19;;;9.41;100.00
32638;BME280;19045;52.268;10.506;2023-05-25T00:55:43;101530.41;;;9.30;100.00
32638;BME280;19045;52.268;10.506;2023-05-25T00:58:10;101534.69;;;9.38;100.00
32638;BME280;19045;52.268;10.506;2023-05-25T01:00:40;101535.53;;;9.31;100.00
32638;BME280;19045;52.268;10.506;2023-05-25T01:03:11;101526.59;;;9.19;100.00
32638;BME280;19045;52.268;10.506;2023-05-25T01:05:44;101532.06;;;9.06;100.00
32638;BME280;19045;52.268;10.506;2023-05-25T01:08:16;101533.66;;;9.14;100.00
32638;BME280;19045;52.268;10.506;2023-05-25T01:10:44;101533.44;;;9.15;100.00
32638;BME280;19045;52.268;10.506;2023-05-25T01:13:16;101528.38;;;9.07;100.00
32638;BME280;19045;52.268;10.506;2023-05-25T01:15:43;101528.44;;;9.01;100.00
32638;BME280;19045;52.268;10.506;2023-05-25T01:18:12;101531.22;;;8.88;100.00
32638;BME280;19045;52.268;10.506;2023-05-25T01:20:55;101528.78;;;8.79;100.00
32638;BME280;19045;52.268;10.506;2023-05-25T01:23:30;101521.91;;;8.90;100.00
32638;BME280;19045;52.268;10.506;2023-05-25T01:25:59;101521.53;;;8.87;100.00
32638;BME280;19045;52.268;10.506;2023-05-25T01:28:30;101522.56;;;8.86;100.00
32638;BME280;19045;52.268;10.506;2023-05-25T01:30:57;101523.44;;;8.79;100.00
32638;BME280;19045;52.268;10.506;2023-05-25T01:33:26;101518.19;;;8.66;100.00
32638;BME280;19045;52.268;10.506;2023-05-25T01:35:55;101527.25;;;8.65;100.00
32638;BME280;19045;52.268;10.506;2023-05-25T01:38:22;101530.22;;;8.57;100.00
32638;BME280;19045;52.268;10.506;2023-05-25T01:40:48;101532.50;;;8.54;100.00
32638;BME280;19045;52.268;10.506;2023-05-25T01:43:15;101532.31;;;8.49;100.00
32638;BME280;19045;52.268;10.506;2023-05-25T01:45:42;101536.63;;;8.50;100.00
32638;BME280;19045;52.268;10.506;2023-05-25T01:48:14;101532.06;;;8.57;100.00
32638;BME280;19045;52.268;10.506;2023-05-25T01:50:50;101531.19;;;8.63;100.00
32638;BME280;19045;52.268;10.506;2023-05-25T01:53:22;101530.34;;;8.62;100.00
32638;BME280;19045;52.268;10.506;2023-05-25T01:55:54;101525.19;;;8.67;100.00
32638;BME280;19045;52.268;10.506;2023-05-25T01:58:23;101529.44;;;8.75;100.00
32638;BME280;19045;52.268;10.506;2023-05-25T02:00:51;101521.59;;;8.80;100.00
32638;BME280;19045;52.268;10.506;2023-05-25T02:03:18;101530.97;;;8.89;100.00
32638;BME280;19045;52.268;10.506;2023-05-25T02:05:45;101529.78;;;8.85;100.00
32638;BME280;19045;52.268;10.506;2023-05-25T02:08:14;101536.41;;;8.82;100.00
32638;BME280;19045;52.268;10.506;2023-05-25T02:10:43;101533.63;;;8.71;100.00
32638;BME280;19045;52.268;10.506;2023-05-25T02:13:09;101533.16;;;8.74;100.00
32638;BME280;19045;52.268;10.506;2023-05-25T02:15:36;101538.16;;;8.70;100.00
32638;BME280;19045;52.268;10.506;2023-05-25T02:18:02;101548.50;;;8.60;100.00
32638;BME280;19045;52.268;10.506;2023-05-25T02:20:30;101535.72;;;8.62;100.00
32638;BME280;19045;52.268;10.506;2023-05-25T02:22:56;101528.25;;;8.71;100.00
32638;BME280;19045;52.268;10.506;2023-05-25T02:25:23;101534.44;;;8.71;100.00
32638;BME280;19045;52.268;10.506;2023-05-25T02:27:51;101534.03;;;8.68;100.00
32638;BME280;19045;52.268;10.506;2023-05-25T02:30:17;101534.84;;;8.68;100.00
32638;BME280;19045;52.268;10.506;2023-05-25T02:32:44;101534.09;;;8.61;100.00
32638;BME280;19045;52.268;10.506;2023-05-25T02:35:11;101538.72;;;8.48;100.00
32638;BME280;19045;52.268;10.506;2023-05-25T02:37:37;101550.28;;;8.42;100.00
32638;BME280;19045;52.268;10.506;2023-05-25T02:40:05;101541.50;;;8.28;100.00
32638;BME280;19045;52.268;10.506;2023-05-25T02:42:32;101541.69;;;8.33;100.00
32638;BME280;19045;52.268;10.506;2023-05-25T02:44:59;101542.53;;;8.20;100.00
32638;BME280;19045;52.268;10.506;2023-05-25T02:47:26;101538.63;;;8.23;100.00
32638;BME280;19045;52.268;10.506;2023-05-25T02:49:53;101536.38;;;8.20;100.00
32638;BME280;19045;52.268;10.506;2023-05-25T02:52:19;101538.44;;;8.18;100.00
32638;BME280;19045;52.268;10.506;2023-05-25T02:54:46;101538.44;;;8.18;100.00
32638;BME280;19045;52.268;10.506;2023-05-25T02:57:13;101539.88;;;8.20;100.00
32638;BME280;19045;52.268;10.506;2023-05-25T02:59:40;101530.41;;;8.18;100.00
32638;BME280;19045;52.268;10.506;2023-05-25T03:02:08;101542.97;;;8.17;100.00
32638;BME280;19045;52.268;10.506;2023-05-25T03:04:35;101538.88;;;8.15;100.00
32638;BME280;19045;52.268;10.506;2023-05-25T03:07:06;101543.97;;;8.23;100.00
32638;BME280;19045;52.268;10.506;2023-05-25T03:09:32;101548.50;;;8.22;100.00
32638;BME280;19045;52.268;10.506;2023-05-25T03:11:59;101552.38;;;8.26;100.00
32638;BME280;19045;52.268;10.506;2023-05-25T03:14:26;101549.16;;;8.18;100.00
32638;BME280;19045;52.268;10.506;2023-05-25T03:16:53;101552.88;;;8.10;100.00
32638;BME280;19045;52.268;10.506;2023-05-25T03:19:21;101552.03;;;8.16;100.00
32638;BME280;19045;52.268;10.506;2023-05-25T03:21:53;101555.97;;;8.14;100.00
32638;BME280;19045;52.268;10.506;2023-05-25T03:24:20;101557.88;;;8.00;100.00
32638;BME280;19045;52.268;10.506;2023-05-25T03:26:47;101561.81;;;7.91;100.00
32638;BME280;19045;52.268;10.506;2023-05-25T03:29:14;101563.09;;;7.82;100.00
32638;BME280;19045;52.268;10.506;2023-05-25T03:31:40;101567.25;;;7.71;100.00
32638;BME280;19045;52.268;10.506;2023-05-25T03:34:07;101569.69;;;7.73;100.00
32638;BME280;19045;52.268;10.506;2023-05-25T03:36:35;101572.19;;;7.61;100.00
32638;BME280;19045;52.268;10.506;2023-05-25T03:39:01;101577.56;;;7.61;100.00
32638;BME280;19045;52.268;10.506;2023-05-25T03:41:40;101581.47;;;7.59;100.00
32638;BME280;19045;52.268;10.506;2023-05-25T03:44:27;101584.16;;;7.52;100.00
32638;BME280;19045;52.268;10.506;2023-05-25T03:46:53;101584.16;;;7.52;100.00
32638;BME280;19045;52.268;10.506;2023-05-25T03:49:23;101582.28;;;7.46;100.00
32638;BME280;19045;52.268;10.506;2023-05-25T03:51:51;101598.53;;;7.64;100.00
32638;BME280;19045;52.268;10.506;2023-05-25T03:54:32;101596.25;;;7.68;100.00
32638;BME280;19045;52.268;10.506;2023-05-25T03:57:08;101590.88;;;7.74;100.00
32638;BME280;19045;52.268;10.506;2023-05-25T03:59:35;101593.75;;;7.79;100.00
32638;BME280;19045;52.268;10.506;2023-05-25T04:02:17;101590.44;;;7.84;100.00
32638;BME280;19045;52.268;10.506;2023-05-25T04:04:52;101597.84;;;7.95;100.00
32638;BME280;19045;52.268;10.506;2023-05-25T04:07:22;101600.88;;;8.05;100.00
32638;BME280;19045;52.268;10.506;2023-05-25T04:09:48;101600.22;;;8.16;100.00
32638;BME280;19045;52.268;10.506;2023-05-25T04:12:15;101600.81;;;8.32;100.00
32638;BME280;19045;52.268;10.506;2023-05-25T04:14:41;101593.13;;;8.42;100.00
32638;BME280;19045;52.268;10.506;2023-05-25T04:17:14;101601.69;;;8.57;100.00
32638;BME280;19045;52.268;10.506;2023-05-25T04:19:41;101609.06;;;8.68;100.00
32638;BME280;19045;52.268;10.506;2023-05-25T04:22:15;101611.88;;;8.73;100.00
32638;BME280;19045;52.268;10.506;2023-05-25T04:24:43;101619.28;;;8.77;100.00
32638;BME280;19045;52.268;10.506;2023-05-25T04:27:10;101609.56;;;8.83;100.00
32638;BME280;19045;52.268;10.506;2023-05-25T04:29:36;101616.69;;;8.96;100.00
32638;BME280;19045;52.268;10.506;2023-05-25T04:32:03;101614.38;;;8.99;100.00
32638;BME280;19045;52.268;10.506;2023-05-25T04:34:30;101616.44;;;9.04;100.00
32638;BME280;19045;52.268;10.506;2023-05-25T04:37:00;101612.28;;;9.08;100.00
32638;BME280;19045;52.268;10.506;2023-05-25T04:39:29;101621.50;;;9.12;100.00
32638;BME280;19045;52.268;10.506;2023-05-25T04:42:04;101625.00;;;9.12;100.00
32638;BME280;19045;52.268;10.506;2023-05-25T04:44:32;101628.50;;;9.13;100.00
32638;BME280;19045;52.268;10.506;2023-05-25T04:46:58;101633.50;;;9.09;100.00
32638;BME280;19045;52.268;10.506;2023-05-25T04:49:25;101628.31;;;9.14;100.00
32638;BME280;19045;52.268;10.506;2023-05-25T04:51:59;101631.09;;;9.01;100.00
32638;BME280;19045;52.268;10.506;2023-05-25T04:54:46;101631.50;;;8.98;100.00
32638;BME280;19045;52.268;10.506;2023-05-25T04:59:59;101635.72;;;9.12;100.00
32638;BME280;19045;52.268;10.506;2023-05-25T05:02:25;101637.97;;;9.15;100.00
32638;BME280;19045;52.268;10.506;2023-05-25T05:04:52;101637.16;;;9.15;100.00
32638;BME280;19045;52.268;10.506;2023-05-25T05:07:18;101628.69;;;9.18;100.00
32638;BME280;19045;52.268;10.506;2023-05-25T05:09:46;101634.53;;;9.33;100.00
32638;BME280;19045;52.268;10.506;2023-05-25T05:12:12;101630.53;;;9.42;100.00
32638;BME280;19045;52.268;10.506;2023-05-25T05:14:40;101629.88;;;9.47;100.00
32638;BME280;19045;52.268;10.506;2023-05-25T05:17:07;101635.97;;;9.35;100.00
32638;BME280;19045;52.268;10.506;2023-05-25T05:19:33;101640.22;;;9.43;100.00
32638;BME280;19045;52.268;10.506;2023-05-25T05:22:00;101646.31;;;9.57;100.00
32638;BME280;19045;52.268;10.506;2023-05-25T05:24:27;101645.34;;;9.69;100.00
32638;BME280;19045;52.268;10.506;2023-05-25T05:26:54;101658.91;;;9.74;100.00
32638;BME280;19045;52.268;10.506;2023-05-25T05:29:20;101658.44;;;9.84;100.00
32638;BME280;19045;52.268;10.506;2023-05-25T05:31:48;101657.16;;;9.86;100.00
32638;BME280;19045;52.268;10.506;2023-05-25T05:34:15;101655.72;;;9.66;100.00
32638;BME280;19045;52.268;10.506;2023-05-25T05:36:41;101660.88;;;9.67;100.00
32638;BME280;19045;52.268;10.506;2023-05-25T05:39:08;101658.13;;;9.74;100.00
32638;BME280;19045;52.268;10.506;2023-05-25T05:41:35;101663.94;;;9.89;100.00
32638;BME280;19045;52.268;10.506;2023-05-25T05:44:07;101658.31;;;9.97;100.00
32638;BME280;19045;52.268;10.506;2023-05-25T05:46:34;101660.66;;;10.05;100.00
32638;BME280;19045;52.268;10.506;2023-05-25T05:49:02;101664.31;;;10.17;100.00
32638;BME280;19045;52.268;10.506;2023-05-25T05:51:29;101669.44;;;10.19;100.00
32638;BME280;19045;52.268;10.506;2023-05-25T05:53:56;101662.47;;;10.11;100.00
32638;BME280;19045;52.268;10.506;2023-05-25T05:56:22;101664.00;;;9.82;100.00
32638;BME280;19045;52.268;10.506;2023-05-25T05:58:50;101669.00;;;9.79;100.00
32638;BME280;19045;52.268;10.506;2023-05-25T06:01:18;101667.53;;;9.83;100.00
32638;BME280;19045;52.268;10.506;2023-05-25T06:03:45;101669.81;;;9.98;100.00
32638;BME280;19045;52.268;10.506;2023-05-25T06:06:13;101672.13;;;9.76;100.00
32638;BME280;19045;52.268;10.506;2023-05-25T06:08:41;101678.88;;;10.03;100.00
32638;BME280;19045;52.268;10.506;2023-05-25T06:11:07;101680.03;;;10.32;100.00
32638;BME280;19045;52.268;10.506;2023-05-25T06:13:34;101693.97;;;10.59;100.00
32638;BME280;19045;52.268;10.506;2023-05-25T06:16:01;101690.59;;;10.63;99.76
32638;BME280;19045;52.268;10.506;2023-05-25T06:18:27;101696.94;;;10.69;99.08
32638;BME280;19045;52.268;10.506;2023-05-25T06:20:54;101698.16;;;10.36;99.72
32638;BME280;19045;52.268;10.506;2023-05-25T06:23:22;101705.72;;;10.03;100.00
32638;BME280;19045;52.268;10.506;2023-05-25T06:25:51;101704.84;;;10.27;100.00
32638;BME280;19045;52.268;10.506;2023-05-25T06:28:20;101709.13;;;10.53;100.00
32638;BME280;19045;52.268;10.506;2023-05-25T06:30:47;101712.97;;;10.75;100.00
32638;BME280;19045;52.268;10.506;2023-05-25T06:33:14;101713.16;;;10.92;97.74
32638;BME280;19045;52.268;10.506;2023-05-25T06:35:41;101709.34;;;11.00;96.82
32638;BME280;19045;52.268;10.506;2023-05-25T06:38:07;101710.41;;;11.10;96.27
32638;BME280;19045;52.268;10.506;2023-05-25T06:40:37;101717.59;;;11.28;95.23
32638;BME280;19045;52.268;10.506;2023-05-25T06:43:03;101720.47;;;11.45;94.13
32638;BME280;19045;52.268;10.506;2023-05-25T06:45:30;101727.50;;;11.46;93.13
32638;BME280;19045;52.268;10.506;2023-05-25T06:47:56;101733.78;;;11.39;93.65
32638;BME280;19045;52.268;10.506;2023-05-25T06:50:23;101726.19;;;11.36;94.14
32638;BME280;19045;52.268;10.506;2023-05-25T06:52:50;101739.00;;;11.23;93.40
32638;BME280;19045;52.268;10.506;2023-05-25T06:55:16;101734.03;;;11.08;94.80
32638;BME280;19045;52.268;10.506;2023-05-25T06:57:44;101736.06;;;10.95;96.40
32638;BME280;19045;52.268;10.506;2023-05-25T07:00:12;101729.09;;;10.57;98.48
32638;BME280;19045;52.268;10.506;2023-05-25T07:02:39;101729.25;;;10.44;100.00
32638;BME280;19045;52.268;10.506;2023-05-25T07:05:06;101736.03;;;10.65;100.00
32638;BME280;19045;52.268;10.506;2023-05-25T07:07:33;101730.88;;;10.81;99.25
32638;BME280;19045;52.268;10.506;2023-05-25T07:10:01;101733.94;;;10.85;97.78
32638;BME280;19045;52.268;10.506;2023-05-25T07:12:28;101726.97;;;10.96;97.73
32638;BME280;19045;52.268;10.506;2023-05-25T07:14:56;101732.91;;;11.16;96.58
32638;BME280;19045;52.268;10.506;2023-05-25T07:17:22;101735.16;;;11.30;95.16
32638;BME280;19045;52.268;10.506;2023-05-25T07:19:49;101732.25;;;11.43;94.01
32638;BME280;19045;52.268;10.506;2023-05-25T07:22:16;101728.19;;;11.11;93.90
32638;BME280;19045;52.268;10.506;2023-05-25T07:24:43;101734.31;;;11.18;95.06
32638;BME280;19045;52.268;10.506;2023-05-25T07:27:10;101734.22;;;11.25;95.06
32638;BME280;19045;52.268;10.506;2023-05-25T07:29:37;101721.97;;;11.40;94.26
32638;BME280;19045;52.268;10.506;2023-05-25T07:32:05;101730.06;;;11.52;94.22
32638;BME280;19045;52.268;10.506;2023-05-25T07:34:32;101740.84;;;11.64;93.10
32638;BME280;19045;52.268;10.506;2023-05-25T07:36:59;101745.47;;;11.75;92.77
32638;BME280;19045;52.268;10.506;2023-05-25T07:39:25;101738.22;;;11.87;92.45
32638;BME280;19045;52.268;10.506;2023-05-25T07:41:52;101736.66;;;11.68;92.80
32638;BME280;19045;52.268;10.506;2023-05-25T07:44:19;101740.63;;;11.65;92.32
32638;BME280;19045;52.268;10.506;2023-05-25T07:46:45;101743.47;;;11.29;92.82
32638;BME280;19045;52.268;10.506;2023-05-25T07:49:13;101745.38;;;11.10;94.75
32638;BME280;19045;52.268;10.506;2023-05-25T07:51:41;101740.94;;;11.46;92.50
32638;BME280;19045;52.268;10.506;2023-05-25T07:54:09;101754.63;;;11.85;90.85
32638;BME280;19045;52.268;10.506;2023-05-25T07:56:35;101742.78;;;11.86;90.02
32638;BME280;19045;52.268;10.506;2023-05-25T07:59:02;101747.13;;;12.11;90.05
32638;BME280;19045;52.268;10.506;2023-05-25T08:01:29;101751.00;;;12.15;88.41
32638;BME280;19045;52.268;10.506;2023-05-25T08:03:56;101742.75;;;12.33;87.94
32638;BME280;19045;52.268;10.506;2023-05-25T08:06:24;101752.25;;;12.24;87.17
32638;BME280;19045;52.268;10.506;2023-05-25T08:08:53;101752.50;;;12.46;86.97
32638;BME280;19045;52.268;10.506;2023-05-25T08:11:22;101753.31;;;12.86;84.84
32638;BME280;19045;52.268;10.506;2023-05-25T08:13:50;101748.31;;;12.78;83.85
32638;BME280;19045;52.268;10.506;2023-05-25T08:16:17;101752.88;;;13.17;82.66
32638;BME280;19045;52.268;10.506;2023-05-25T08:18:44;101751.75;;;12.62;83.60
32638;BME280;19045;52.268;10.506;2023-05-25T08:21:11;101758.63;;;11.53;89.58
32638;BME280;19045;52.268;10.506;2023-05-25T08:23:40;101756.66;;;11.19;92.59
32638;BME280;19045;52.268;10.506;2023-05-25T08:26:07;101758.56;;;11.71;92.15
32638;BME280;19045;52.268;10.506;2023-05-25T08:28:34;101754.91;;;11.66;90.85
32638;BME280;19045;52.268;10.506;2023-05-25T08:31:01;101755.31;;;12.04;89.11
32638;BME280;19045;52.268;10.506;2023-05-25T08:33:28;101751.19;;;12.36;89.28
32638;BME280;19045;52.268;10.506;2023-05-25T08:35:55;101748.16;;;12.44;87.48
32638;BME280;19045;52.268;10.506;2023-05-25T08:38:23;101756.13;;;11.81;89.74
32638;BME280;19045;52.268;10.506;2023-05-25T08:41:02;101749.47;;;12.19;89.53
32638;BME280;19045;52.268;10.506;2023-05-25T08:43:31;101746.19;;;12.17;88.14
32638;BME280;19045;52.268;10.506;2023-05-25T08:46:02;101745.59;;;12.26;88.13
32638;BME280;19045;52.268;10.506;2023-05-25T08:48:34;101749.69;;;12.29;87.84
32638;BME280;19045;52.268;10.506;2023-05-25T08:51:03;101754.38;;;12.22;88.65
32638;BME280;19045;52.268;10.506;2023-05-25T08:53:34;101752.34;;;13.32;85.72
32638;BME280;19045;52.268;10.506;2023-05-25T08:56:06;101752.44;;;14.37;80.79
32638;BME280;19045;52.268;10.506;2023-05-25T08:58:41;101752.44;;;14.80;75.59
32638;BME280;19045;52.268;10.506;2023-05-25T09:01:12;101756.09;;;14.91;75.99
32638;BME280;19045;52.268;10.506;2023-05-25T09:03:41;101753.53;;;13.86;78.54
32638;BME280;19045;52.268;10.506;2023-05-25T09:06:09;101762.63;;;13.80;78.77
32638;BME280;19045;52.268;10.506;2023-05-25T09:08:36;101754.03;;;13.21;82.53
32638;BME280;19045;52.268;10.506;2023-05-25T09:11:06;101752.06;;;13.62;82.39
32638;BME280;19045;52.268;10.506;2023-05-25T09:13:35;101746.56;;;15.10;76.30
32638;BME280;19045;52.268;10.506;2023-05-25T09:16:02;101758.19;;;15.96;72.26
32638;BME280;19045;52.268;10.506;2023-05-25T09:18:29;101758.91;;;16.60;69.23
32638;BME280;19045;52.268;10.506;2023-05-25T09:20:56;101752.41;;;15.02;73.87
32638;BME280;19045;52.268;10.506;2023-05-25T09:23:22;101755.41;;;15.86;70.65
32638;BME280;19045;52.268;10.506;2023-05-25T09:25:50;101757.69;;;16.46;68.72
32638;BME280;19045;52.268;10.506;2023-05-25T09:28:19;101760.13;;;16.47;68.50
32638;BME280;19045;52.268;10.506;2023-05-25T09:30:46;101762.44;;;15.28;72.34
32638;BME280;19045;52.268;10.506;2023-05-25T09:33:13;101769.31;;;16.36;68.67
32638;BME280;19045;52.268;10.506;2023-05-25T09:35:42;101768.78;;;16.91;66.36
32638;BME280;19045;52.268;10.506;2023-05-25T09:38:11;101772.91;;;17.09;65.02
32638;BME280;19045;52.268;10.506;2023-05-25T09:40:38;101774.53;;;17.05;64.96
32638;BME280;19045;52.268;10.506;2023-05-25T09:43:05;101775.44;;;16.59;66.82
32638;BME280;19045;52.268;10.506;2023-05-25T09:45:33;101778.75;;;16.29;68.23
32638;BME280;19045;52.268;10.506;2023-05-25T09:48:01;101775.69;;;16.15;69.33
32638;BME280;19045;52.268;10.506;2023-05-25T09:50:28;101783.50;;;16.07;69.95
32638;BME280;19045;52.268;10.506;2023-05-25T09:52:57;101777.41;;;15.94;70.71
32638;BME280;19045;52.268;10.506;2023-05-25T09:55:26;101787.84;;;15.76;71.69
32638;BME280;19045;52.268;10.506;2023-05-25T09:57:52;101787.50;;;15.67;72.44
32638;BME280;19045;52.268;10.506;2023-05-25T10:00:21;101793.59;;;15.52;72.76
32638;BME280;19045;52.268;10.506;2023-05-25T10:02:49;101786.53;;;15.51;72.13
32638;BME280;19045;52.268;10.506;2023-05-25T10:05:16;101791.44;;;15.55;73.28
32638;BME280;19045;52.268;10.506;2023-05-25T10:07:43;101798.66;;;15.71;72.13
32638;BME280;19045;52.268;10.506;2023-05-25T10:10:12;101794.34;;;15.75;71.02
32638;BME280;19045;52.268;10.506;2023-05-25T10:12:40;101791.81;;;15.63;71.56
32638;BME280;19045;52.268;10.506;2023-05-25T10:15:08;101795.81;;;15.87;70.86
32638;BME280;19045;52.268;10.506;2023-05-25T10:17:42;101800.06;;;16.10;69.31
32638;BME280;19045;52.268;10.506;2023-05-25T10:20:12;101793.19;;;16.39;68.26
32638;BME280;19045;52.268;10.506;2023-05-25T10:22:43;101783.88;;;16.67;67.15
32638;BME280;19045;52.268;10.506;2023-05-25T10:25:16;101785.38;;;17.00;65.65
32638;BME280;19045;52.268;10.506;2023-05-25T10:27:57;101785.56;;;17.86;63.87
32638;BME280;19045;52.268;10.506;2023-05-25T10:30:25;101791.34;;;18.84;59.90
32638;BME280;19045;52.268;10.506;2023-05-25T10:32:53;101789.44;;;19.38;57.11
32638;BME280;19045;52.268;10.506;2023-05-25T10:35:21;101781.69;;;19.55;56.53
32638;BME280;19045;52.268;10.506;2023-05-25T10:37:50;101784.75;;;19.49;56.09
32638;BME280;19045;52.268;10.506;2023-05-25T10:40:18;101793.50;;;19.46;57.20
32638;BME280;19045;52.268;10.506;2023-05-25T10:42:46;101793.56;;;19.75;55.58
32638;BME280;19045;52.268;10.506;2023-05-25T10:45:13;101787.25;;;19.79;55.91
32638;BME280;19045;52.268;10.506;2023-05-25T10:47:40;101787.59;;;19.29;57.11
32638;BME280;19045;52.268;10.506;2023-05-25T10:50:18;101785.88;;;19.43;56.99
32638;BME280;19045;52.268;10.506;2023-05-25T10:52:56;101782.72;;;18.62;58.97
32638;BME280;19045;52.268;10.506;2023-05-25T10:55:23;101777.88;;;17.47;64.28
32638;BME280;19045;52.268;10.506;2023-05-25T10:58:06;101782.00;;;17.90;63.08
32638;BME280;19045;52.268;10.506;2023-05-25T11:00:32;101766.97;;;18.48;61.00
32638;BME280;19045;52.268;10.506;2023-05-25T11:02:59;101770.03;;;18.96;59.41
32638;BME280;19045;52.268;10.506;2023-05-25T11:05:34;101767.38;;;18.86;59.81
32638;BME280;19045;52.268;10.506;2023-05-25T11:08:03;101766.97;;;18.58;60.16
32638;BME280;19045;52.268;10.506;2023-05-25T11:10:43;101765.81;;;18.70;60.53
32638;BME280;19045;52.268;10.506;2023-05-25T11:13:21;101774.28;;;19.22;57.72
32638;BME280;19045;52.268;10.506;2023-05-25T11:16:06;101773.06;;;19.48;56.19
32638;BME280;19045;52.268;10.506;2023-05-25T11:18:36;101764.72;;;20.26;54.54
32638;BME280;19045;52.268;10.506;2023-05-25T11:21:13;101759.84;;;19.22;56.12
32638;BME280;19045;52.268;10.506;2023-05-25T11:23:54;101762.34;;;18.54;58.49
32638;BME280;19045;52.268;10.506;2023-05-25T11:26:21;101752.97;;;18.85;59.59
32638;BME280;19045;52.268;10.506;2023-05-25T11:28:49;101757.81;;;18.93;58.76
32638;BME280;19045;52.268;10.506;2023-05-25T11:31:19;101758.56;;;19.53;56.79
32638;BME280;19045;52.268;10.506;2023-05-25T11:33:47;101756.31;;;19.60;56.51
32638;BME280;19045;52.268;10.506;2023-05-25T11:36:16;101761.22;;;19.63;56.64
32638;BME280;19045;52.268;10.506;2023-05-25T11:38:44;101762.53;;;19.99;55.26
32638;BME280;19045;52.268;10.506;2023-05-25T11:41:18;101753.84;;;19.92;55.51
32638;BME280;19045;52.268;10.506;2023-05-25T11:43:47;101750.69;;;19.51;57.28
32638;BME280;19045;52.268;10.506;2023-05-25T11:46:15;101759.16;;;19.40;56.97
32638;BME280;19045;52.268;10.506;2023-05-25T11:48:44;101763.41;;;19.17;56.97
32638;BME280;19045;52.268;10.506;2023-05-25T11:51:14;101760.31;;;19.73;56.66
32638;BME280;19045;52.268;10.506;2023-05-25T11:53:42;101756.22;;;20.04;53.42
32638;BME280;19045;52.268;10.506;2023-05-25T11:56:10;101760.97;;;21.12;51.76
32638;BME280;19045;52.268;10.506;2023-05-25T11:58:39;101760.09;;;21.54;49.07
32638;BME280;19045;52.268;10.506;2023-05-25T12:01:12;101766.94;;;20.72;51.37
32638;BME280;19045;52.268;10.506;2023-05-25T12:03:39;101760.16;;;20.45;52.21
32638;BME280;19045;52.268;10.506;2023-05-25T12:06:06;101756.84;;;20.25;52.60
32638;BME280;19045;52.268;10.506;2023-05-25T12:08:33;101752.69;;;20.56;53.08
32638;BME280;19045;52.268;10.506;2023-05-25T12:13:27;101749.31;;;19.83;54.10
32638;BME280;19045;52.268;10.506;2023-05-25T12:15:55;101746.31;;;20.13;53.46
32638;BME280;19045;52.268;10.506;2023-05-25T12:18:25;101745.31;;;20.33;53.32
32638;BME280;19045;52.268;10.506;2023-05-25T12:20:52;101742.00;;;20.07;54.14
32638;BME280;19045;52.268;10.506;2023-05-25T12:23:19;101745.97;;;19.91;54.15
32638;BME280;19045;52.268;10.506;2023-05-25T12:25:46;101743.00;;;19.58;54.43
32638;BME280;19045;52.268;10.506;2023-05-25T12:28:14;101748.81;;;19.76;54.70
32638;BME280;19045;52.268;10.506;2023-05-25T12:30:49;101747.22;;;19.75;54.02
32638;BME280;19045;52.268;10.506;2023-05-25T12:33:20;101738.97;;;20.08;53.57
32638;BME280;19045;52.268;10.506;2023-05-25T12:35:48;101742.94;;;19.92;53.92
32638;BME280;19045;52.268;10.506;2023-05-25T12:38:16;101734.69;;;19.74;54.34
32638;BME280;19045;52.268;10.506;2023-05-25T12:40:43;101736.34;;;19.31;56.16
32638;BME280;19045;52.268;10.506;2023-05-25T12:43:10;101735.34;;;19.60;55.91
32638;BME280;19045;52.268;10.506;2023-05-25T12:45:41;101737.81;;;19.13;56.43
32638;BME280;19045;52.268;10.506;2023-05-25T12:48:08;101734.44;;;19.31;55.99
32638;BME280;19045;52.268;10.506;2023-05-25T12:50:36;101730.16;;;19.20;55.89
32638;BME280;19045;52.268;10.506;2023-05-25T12:53:03;101739.63;;;19.28;56.55